Etusivu
METAR-TAF:

METAR-TAF

Lentoasemat :

Key Lake, Saskatchewan, Kanada

Leveyspiiri: 57-15N, Pituuspiiri: 105-37W, korkeus merenpinnasta: 509 m

Tämänhetkinen sää

Tämä raportti tehtiin 45 minuuttia sitten, kello 13.00 UTC
Tuuli 10 kn lounaasta
Lämpötila -10°C
Kosteus 85%
Ilmanpaine 1005 hPa
Näkyvyys: 14.5 km
selkeää

METAR: CYKJ 201300Z AUTO 22010KT 9SM CLR M10/M12 A2969 RMK SLP099

Aika: 07:45 (13:45 UTC)

Sääennuste

Tämä raportti tehtiin 1 tunti ja 7 minuuttia sitten, kello 12.38 UTC
Ennuste voimassa 20. päivästä klo 13 UTC - 20. päivään klo 24 UTC
Tuuli 7 kn lounaasta
Näkyvyys: 10 km
Muutamia pilviä 25000 ft:n korkeudessa
From 20. päivästä klo 1700 UTC
Tuuli 12 kn lännestä/lounaasta puuskistuen 22 kn:hen
Näkyvyys: 10 km
Hajonneita pilviä 22000 ft:n korkeudessa

TAF: CYKJ 201238Z 2013/2024 22007KT P6SM FEW250 FM201700 25012G22KT P6SM BKN220 RMK FCST BASED ON AUTO OBS. NXT FCST BY 201900Z

Säähavainnot ja -ennusteet yli 4000 lentoasemalta (METAR- ja TAF-raportit).

Käytössä olevat sääasemat on merkitty karttaan keltaisilla ja punaisilla pisteillä.

Aseta hiiri pisteen päälle nähdäksesi sääaseman nimen.

Klikkaa sitten nähdäksesi säähavainnot ja -ennusteet.

Kartan vaihtaminen: klikkaa mustalla rastilla varustettuja vihreitä pisteitä, niin voit zoomata sisään; viivalla varustettua vihreää pistettä, niin voit zoomata ulos tai vihreitä nuolia, niin pääset viereisille kartoille.


METAR-TAF: